Bredlow Corner, Arkansas
Current Conditions -  °F | °C
As of 6:35 PM on Saturday 25 Oct 2014 (Local Time) from KSGT Reporting Station
Clear Clear  
Wind Chill: 73°   Ceiling: Unl
Heat Index: 73°   Visibility: 10mi
Dew Point: 63°   Wind: 9mph
Humidity: 69%   Direction: 220°SW
Pressure: 30.03"   Gusts: NA
Location:  34.5894°N, 91.9107°W
Report Text: KSGT 252335Z AUTO 22008KT 10SM CLR 23/17 A3003 RMK AO1
Loading
Personal Weather Stations






























Interactive Weather Map New forecast layout! Learn more

10-Day Weather Forecast

Advertisements
Track Severe Weather on mobile